createdAt,value
2022-10-29T00:00:04.398Z,97656.16
2022-10-29T00:02:30.759Z,97654.00
2022-10-29T00:04:58.172Z,97656.63
2022-10-29T00:07:24.576Z,97645.78
2022-10-29T00:09:50.889Z,97653.69
2022-10-29T00:12:17.227Z,97643.97
2022-10-29T00:14:43.576Z,97651.88
2022-10-29T00:17:15.882Z,97646.44
2022-10-29T00:19:42.190Z,97642.16
2022-10-29T00:22:08.726Z,97650.72
2022-10-29T00:24:35.395Z,97655.50
2022-10-29T00:27:01.905Z,97648.09
2022-10-29T00:29:28.238Z,97649.75
2022-10-29T00:31:54.631Z,97656.66
2022-10-29T00:34:20.996Z,97661.94
2022-10-29T00:36:47.403Z,97662.25
2022-10-29T00:39:16.920Z,97646.13
2022-10-29T00:41:43.629Z,97648.59
2022-10-29T00:44:20.436Z,97649.56
2022-10-29T00:47:07.293Z,97652.88
2022-10-29T00:49:34.809Z,97652.69
2022-10-29T00:52:02.771Z,97645.63
2022-10-29T00:54:31.879Z,97652.22
2022-10-29T00:57:06.607Z,97655.66
2022-10-29T00:59:33.251Z,97654.00
2022-10-29T01:01:59.680Z,97656.66
2022-10-29T01:04:27.674Z,97659.78
2022-10-29T01:06:54.710Z,97658.16
2022-10-29T01:09:21.080Z,97668.84
2022-10-29T01:12:02.823Z,97668.00
2022-10-29T01:14:48.004Z,97667.19
2022-10-29T01:17:30.357Z,97653.53
2022-10-29T01:20:08.814Z,97666.22
2022-10-29T01:22:50.625Z,97659.13
2022-10-29T01:25:39.931Z,97662.22
2022-10-29T01:28:10.499Z,97648.88
2022-10-29T01:30:55.578Z,97647.22
2022-10-29T01:33:23.524Z,97647.22
2022-10-29T01:36:01.882Z,97641.47
2022-10-29T01:38:47.049Z,97638.63
2022-10-29T01:41:20.369Z,97654.59
2022-10-29T01:43:56.665Z,97646.69
2022-10-29T01:46:24.596Z,97648.69
2022-10-29T01:48:56.506Z,97644.88
2022-10-29T01:51:28.131Z,97644.41
2022-10-29T01:53:55.514Z,97646.06
2022-10-29T01:56:21.839Z,97643.63
2022-10-29T01:58:50.130Z,97637.31
2022-10-29T02:01:31.135Z,97638.44
2022-10-29T02:03:58.721Z,97623.81
2022-10-29T02:06:40.467Z,97627.59
2022-10-29T02:09:15.399Z,97626.63
2022-10-29T02:12:00.187Z,97613.28
2022-10-29T02:14:30.169Z,97617.88
2022-10-29T02:16:56.648Z,97611.44
2022-10-29T02:19:23.078Z,97614.09
2022-10-29T02:21:50.836Z,97612.28
2022-10-29T02:24:20.299Z,97609.66
2022-10-29T02:26:46.649Z,97607.84
2022-10-29T02:29:12.958Z,97607.69
2022-10-29T02:31:39.307Z,97617.06
2022-10-29T02:34:05.648Z,97615.88
2022-10-29T02:36:32.079Z,97614.91
2022-10-29T02:38:58.454Z,97606.84
2022-10-29T02:41:24.773Z,97603.56
2022-10-29T02:43:51.180Z,97601.91
2022-10-29T02:46:19.291Z,97598.59
2022-10-29T02:48:46.035Z,97600.91
2022-10-29T02:51:12.461Z,97597.94
2022-10-29T02:53:38.937Z,97602.34
2022-10-29T02:56:06.217Z,97610.41
2022-10-29T02:58:41.499Z,97606.28
2022-10-29T03:01:07.816Z,97605.59
2022-10-29T03:03:40.044Z,97604.97
2022-10-29T03:06:11.947Z,97601.47
2022-10-29T03:08:44.855Z,97603.13
2022-10-29T03:11:11.600Z,97600.19
2022-10-29T03:16:09.459Z,97589.63
2022-10-29T03:18:35.865Z,97597.03
2022-10-29T03:21:02.227Z,97586.16
2022-10-29T03:23:28.740Z,97586.78
2022-10-29T03:25:57.255Z,97575.47
2022-10-29T03:28:25.171Z,97580.22
2022-10-29T03:30:51.612Z,97586.97
2022-10-29T03:33:17.995Z,97579.38
2022-10-29T03:35:44.372Z,97580.03
2022-10-29T03:38:10.882Z,97587.94
2022-10-29T03:40:37.253Z,97588.84
2022-10-29T03:43:03.643Z,97593.94
2022-10-29T03:45:30.010Z,97596.94
2022-10-29T03:47:57.609Z,97598.03
2022-10-29T03:50:24.307Z,97604.25
2022-10-29T03:52:50.679Z,97602.97
2022-10-29T03:55:24.121Z,97602.59
2022-10-29T03:57:50.549Z,97606.88
2022-10-29T04:00:16.976Z,97603.78
2022-10-29T04:02:43.625Z,97611.47
2022-10-29T04:05:10.037Z,97610.44
2022-10-29T04:07:49.411Z,97605.47
2022-10-29T04:10:15.826Z,97600.34
2022-10-29T04:12:45.078Z,97601.19
2022-10-29T04:15:11.398Z,97603.56
2022-10-29T04:17:37.756Z,97595.16
2022-10-29T04:20:09.968Z,97596.16
2022-10-29T04:28:43.369Z,97619.69
2022-10-29T04:31:11.763Z,97628.75
2022-10-29T04:33:40.683Z,97619.78
2022-10-29T04:36:07.293Z,97631.25
2022-10-29T04:38:34.008Z,97627.97
2022-10-29T04:41:01.038Z,97634.50
2022-10-29T04:43:27.950Z,97633.66
2022-10-29T04:45:56.533Z,97637.44
2022-10-29T04:48:25.651Z,97637.91
2022-10-29T04:50:53.194Z,97638.25
2022-10-29T04:53:19.907Z,97625.28
2022-10-29T04:55:46.329Z,97628.25
2022-10-29T04:58:14.462Z,97622.03
2022-10-29T05:00:40.881Z,97633.44
2022-10-29T05:03:16.280Z,97632.78
2022-10-29T05:05:42.760Z,97637.75
2022-10-29T05:08:09.702Z,97632.78
2022-10-29T05:10:37.638Z,97633.00
2022-10-29T05:13:11.521Z,97634.91
2022-10-29T05:15:39.314Z,97641.41
2022-10-29T05:18:06.153Z,97640.66
2022-10-29T05:20:32.968Z,97633.09
2022-10-29T05:23:03.756Z,97644.56
2022-10-29T05:25:30.931Z,97632.31
2022-10-29T05:28:21.165Z,97637.81
2022-10-29T05:30:48.349Z,97642.00
2022-10-29T05:33:15.831Z,97636.22
2022-10-29T05:35:49.207Z,97635.19
2022-10-29T05:38:15.717Z,97630.75
2022-10-29T05:40:59.774Z,97628.59
2022-10-29T05:43:26.424Z,97626.41
2022-10-29T05:45:52.856Z,97630.91
2022-10-29T05:48:19.316Z,97624.53
2022-10-29T05:50:45.677Z,97633.75
2022-10-29T05:53:14.655Z,97630.00
2022-10-29T05:55:41.480Z,97632.03
2022-10-29T05:58:12.821Z,97637.00
2022-10-29T06:00:39.975Z,97641.63
2022-10-29T06:03:14.198Z,97647.78
2022-10-29T06:05:41.072Z,97645.44
2022-10-29T06:08:07.519Z,97643.72
2022-10-29T06:10:34.285Z,97651.00
2022-10-29T06:13:00.608Z,97644.63
2022-10-29T06:15:26.959Z,97644.63
2022-10-29T06:17:53.976Z,97647.94
2022-10-29T06:20:21.109Z,97649.22
2022-10-29T06:22:47.742Z,97655.50
2022-10-29T06:25:14.176Z,97657.38
2022-10-29T06:27:48.542Z,97658.97
2022-10-29T06:30:14.855Z,97664.88
2022-10-29T06:32:41.281Z,97655.94
2022-10-29T06:35:07.799Z,97658.06
2022-10-29T06:37:42.673Z,97662.56
2022-10-29T06:40:09.312Z,97667.16
2022-10-29T06:42:37.720Z,97657.16
2022-10-29T06:45:04.224Z,97661.59
2022-10-29T06:47:47.612Z,97667.81
2022-10-29T06:50:14.189Z,97669.03
2022-10-29T06:52:40.629Z,97662.41
2022-10-29T06:55:07.689Z,97667.56
2022-10-29T06:57:34.114Z,97663.84
2022-10-29T07:00:07.524Z,97666.03
2022-10-29T07:02:47.213Z,97669.00
2022-10-29T07:05:17.709Z,97675.06
2022-10-29T07:07:44.026Z,97669.09
2022-10-29T07:10:10.341Z,97676.56
2022-10-29T07:12:44.171Z,97676.28
2022-10-29T07:15:11.170Z,97669.44
2022-10-29T07:17:59.687Z,97668.97
2022-10-29T07:20:26.565Z,97676.63
2022-10-29T07:23:07.480Z,97679.63
2022-10-29T07:25:43.189Z,97680.00
2022-10-29T07:28:17.364Z,97670.53
2022-10-29T07:30:52.770Z,97676.88
2022-10-29T07:33:25.233Z,97672.00
2022-10-29T07:36:00.115Z,97674.75
2022-10-29T07:38:38.991Z,97675.41
2022-10-29T07:41:06.462Z,97677.72
2022-10-29T07:43:32.858Z,97675.56
2022-10-29T07:46:07.588Z,97681.19
2022-10-29T07:48:34.924Z,97680.19
2022-10-29T07:51:05.559Z,97679.00
2022-10-29T07:53:32.680Z,97674.22
2022-10-29T07:55:59.182Z,97676.06
2022-10-29T07:58:26.098Z,97683.44
2022-10-29T08:00:54.638Z,97674.06
2022-10-29T08:03:34.970Z,97670.47
2022-10-29T08:06:02.431Z,97678.56
2022-10-29T08:08:28.801Z,97675.75
2022-10-29T08:11:00.711Z,97680.19
2022-10-29T08:13:28.380Z,97677.56
2022-10-29T08:15:54.888Z,97680.53
2022-10-29T08:18:21.355Z,97680.34
2022-10-29T08:20:47.790Z,97675.75
2022-10-29T08:23:14.661Z,97678.25
2022-10-29T08:25:46.890Z,97679.88
2022-10-29T08:28:14.899Z,97683.66
2022-10-29T08:30:41.971Z,97676.72
2022-10-29T08:33:17.802Z,97677.72
2022-10-29T08:35:44.241Z,97678.03
2022-10-29T08:38:10.632Z,97678.19
2022-10-29T08:40:59.590Z,97675.69
2022-10-29T08:43:47.377Z,97673.22
2022-10-29T08:46:20.929Z,97673.69
2022-10-29T08:48:53.293Z,97675.84
2022-10-29T08:51:39.211Z,97672.69
2022-10-29T08:54:29.643Z,97657.50
2022-10-29T08:57:06.887Z,97657.34
2022-10-29T09:00:00.344Z,97660.38
2022-10-29T09:02:31.199Z,97662.31
2022-10-29T09:04:58.462Z,97655.84
2022-10-29T09:07:39.259Z,97661.78
2022-10-29T09:10:05.681Z,97652.19
2022-10-29T09:12:47.967Z,97650.44
2022-10-29T09:15:32.579Z,97650.00
2022-10-29T09:18:20.323Z,97651.09
2022-10-29T09:21:06.157Z,97659.38
2022-10-29T09:23:44.743Z,97657.38
2022-10-29T09:26:31.284Z,97657.03
2022-10-29T09:29:17.294Z,97655.84
2022-10-29T09:31:50.249Z,97658.31
2022-10-29T09:34:19.017Z,97653.19
2022-10-29T09:36:46.830Z,97658.66
2022-10-29T09:39:34.294Z,97660.34
2022-10-29T09:42:09.323Z,97651.72
2022-10-29T09:44:39.146Z,97657.59
2022-10-29T09:47:20.785Z,97656.97
2022-10-29T09:49:57.237Z,97644.13
2022-10-29T09:52:30.700Z,97644.00
2022-10-29T09:54:59.453Z,97652.31
2022-10-29T09:57:29.341Z,97646.47
2022-10-29T09:59:58.006Z,97648.72
2022-10-29T10:02:33.750Z,97643.31
2022-10-29T10:05:08.053Z,97645.69
2022-10-29T10:07:34.479Z,97640.09
2022-10-29T10:10:01.890Z,97640.72
2022-10-29T10:12:29.710Z,97647.69
2022-10-29T10:15:06.942Z,97642.50
2022-10-29T10:17:51.931Z,97636.94
2022-10-29T10:20:26.284Z,97636.59
2022-10-29T10:22:52.603Z,97634.41
2022-10-29T10:25:31.364Z,97624.25
2022-10-29T10:28:03.278Z,97626.28
2022-10-29T10:30:30.642Z,97625.75
2022-10-29T10:33:10.463Z,97624.94
2022-10-29T10:35:37.941Z,97618.50
2022-10-29T10:38:12.399Z,97617.34
2022-10-29T10:40:38.770Z,97611.25
2022-10-29T10:43:08.312Z,97612.34
2022-10-29T10:45:40.131Z,97607.34
2022-10-29T10:48:09.771Z,97616.59
2022-10-29T10:50:38.272Z,97611.66
2022-10-29T10:53:06.815Z,97599.34
2022-10-29T10:55:38.732Z,97602.69
2022-10-29T10:58:21.269Z,97595.22
2022-10-29T11:01:07.954Z,97596.69
2022-10-29T11:03:44.570Z,97598.75
2022-10-29T11:06:16.892Z,97600.88
2022-10-29T11:08:58.071Z,97595.41
2022-10-29T11:11:30.376Z,97594.63
2022-10-29T11:14:03.136Z,97598.34
2022-10-29T11:16:37.337Z,97593.44
2022-10-29T11:19:12.819Z,97587.72
2022-10-29T11:21:45.650Z,97583.16
2022-10-29T11:24:27.566Z,97585.22
2022-10-29T11:26:57.948Z,97581.53
2022-10-29T11:29:50.046Z,97582.78
2022-10-29T11:32:36.194Z,97588.09
2022-10-29T11:35:04.375Z,97571.31
2022-10-29T11:37:47.648Z,97572.53
2022-10-29T11:40:23.087Z,97564.91
2022-10-29T11:42:49.987Z,97564.28
2022-10-29T11:45:35.084Z,97562.63
2022-10-29T11:48:12.126Z,97551.41
2022-10-29T11:50:38.675Z,97555.47
2022-10-29T11:53:23.903Z,97561.34
2022-10-29T11:56:08.580Z,97555.38
2022-10-29T11:58:56.450Z,97549.25
2022-10-29T12:01:41.269Z,97548.81
2022-10-29T12:04:27.234Z,97541.44
2022-10-29T12:07:02.057Z,97538.28
2022-10-29T12:09:37.864Z,97547.66
2022-10-29T12:14:55.412Z,97531.63
2022-10-29T12:17:25.794Z,97531.75
2022-10-29T12:19:58.347Z,97531.84
2022-10-29T12:22:46.251Z,97530.13
2022-10-29T12:25:12.661Z,97521.69
2022-10-29T12:27:50.708Z,97517.88
2022-10-29T12:30:18.094Z,97511.63
2022-10-29T12:32:56.207Z,97515.97
2022-10-29T12:35:22.702Z,97508.78
2022-10-29T12:37:58.645Z,97502.56
2022-10-29T12:40:28.142Z,97500.06
2022-10-29T12:42:56.792Z,97498.66
2022-10-29T12:45:29.022Z,97489.28
2022-10-29T12:47:55.704Z,97489.47
2022-10-29T12:50:22.249Z,97485.00
2022-10-29T12:52:55.037Z,97482.09
2022-10-29T12:55:21.836Z,97481.91
2022-10-29T12:57:49.272Z,97485.72
2022-10-29T13:00:24.648Z,97481.41
2022-10-29T13:02:52.135Z,97477.72
2022-10-29T13:05:21.610Z,97480.00
2022-10-29T13:07:48.959Z,97474.94
2022-10-29T13:10:29.627Z,97473.09
2022-10-29T13:13:00.080Z,97460.47
2022-10-29T13:15:26.647Z,97475.88
2022-10-29T13:17:55.379Z,97473.03
2022-10-29T13:20:35.280Z,97477.66
2022-10-29T13:23:04.027Z,97463.31
2022-10-29T13:25:32.982Z,97456.66
2022-10-29T13:27:59.774Z,97465.25
2022-10-29T13:30:27.825Z,97453.03
2022-10-29T13:32:55.519Z,97455.72
2022-10-29T13:35:22.060Z,97452.38
2022-10-29T13:37:49.359Z,97450.75
2022-10-29T13:40:31.850Z,97448.06
2022-10-29T13:43:02.461Z,97451.97
2022-10-29T13:45:29.603Z,97446.44
2022-10-29T13:47:59.840Z,97451.97
2022-10-29T13:50:26.733Z,97444.81
2022-10-29T13:52:54.960Z,97452.81
2022-10-29T13:55:21.736Z,97451.97
2022-10-29T13:57:55.435Z,97451.56
2022-10-29T14:00:22.183Z,97449.50
2022-10-29T14:02:56.217Z,97449.25
2022-10-29T14:05:31.829Z,97444.00
2022-10-29T14:08:07.314Z,97441.94
2022-10-29T14:10:39.579Z,97439.00
2022-10-29T14:13:26.770Z,97435.03
2022-10-29T14:16:03.559Z,97438.34
2022-10-29T14:18:31.403Z,97435.81
2022-10-29T14:20:59.053Z,97445.22
2022-10-29T14:23:25.747Z,97440.50
2022-10-29T14:25:56.774Z,97438.03
2022-10-29T14:28:26.827Z,97435.56
2022-10-29T14:31:11.418Z,97445.19
2022-10-29T14:33:38.675Z,97436.38
2022-10-29T14:36:10.996Z,97438.66
2022-10-29T14:38:42.904Z,97439.78
2022-10-29T14:41:09.952Z,97438.94
2022-10-29T14:43:36.856Z,97438.19
2022-10-29T14:46:24.078Z,97437.16
2022-10-29T14:49:00.857Z,97437.16
2022-10-29T14:51:27.641Z,97439.09
2022-10-29T14:53:57.864Z,97434.59
2022-10-29T14:56:28.790Z,97441.59
2022-10-29T14:58:55.220Z,97432.13
2022-10-29T15:01:22.349Z,97435.66
2022-10-29T15:03:56.002Z,97428.09
2022-10-29T15:06:26.060Z,97438.59
2022-10-29T15:09:00.468Z,97435.75
2022-10-29T15:11:31.921Z,97434.34
2022-10-29T15:13:59.589Z,97425.44
2022-10-29T15:16:26.558Z,97424.28
2022-10-29T15:18:54.151Z,97424.31
2022-10-29T15:21:30.805Z,97417.81
2022-10-29T15:24:20.487Z,97422.75
2022-10-29T15:26:54.626Z,97427.47
2022-10-29T15:29:24.606Z,97435.47
2022-10-29T15:31:55.691Z,97424.84
2022-10-29T15:34:30.960Z,97422.19
2022-10-29T15:36:57.847Z,97424.50
2022-10-29T15:39:29.406Z,97424.09
2022-10-29T15:41:59.521Z,97424.50
2022-10-29T15:44:27.888Z,97421.44
2022-10-29T15:46:58.924Z,97419.63
2022-10-29T15:49:31.320Z,97414.69
2022-10-29T15:51:59.573Z,97417.97
2022-10-29T15:54:27.719Z,97426.16
2022-10-29T15:56:54.148Z,97424.09
2022-10-29T15:59:23.888Z,97425.34
2022-10-29T16:01:50.364Z,97429.84
2022-10-29T16:04:16.750Z,97429.41
2022-10-29T16:06:43.111Z,97431.06
2022-10-29T16:09:15.887Z,97427.75
2022-10-29T16:11:42.213Z,97427.75
2022-10-29T16:14:09.917Z,97433.06
2022-10-29T16:16:36.696Z,97430.63
2022-10-29T16:19:03.063Z,97435.13
2022-10-29T16:21:29.513Z,97436.34
2022-10-29T16:23:55.825Z,97437.13
2022-10-29T16:26:23.422Z,97433.84
2022-10-29T16:28:52.685Z,97437.09
2022-10-29T16:31:20.618Z,97431.81
2022-10-29T16:33:51.034Z,97430.97
2022-10-29T16:36:17.467Z,97441.69
2022-10-29T16:38:45.857Z,97444.97
2022-10-29T16:41:13.176Z,97446.97
2022-10-29T16:43:39.627Z,97440.88
2022-10-29T16:46:06.287Z,97439.00
2022-10-29T16:48:35.697Z,97442.88
2022-10-29T16:51:02.215Z,97440.19
2022-10-29T16:53:28.585Z,97436.69
2022-10-29T16:55:55.094Z,97435.44
2022-10-29T16:58:21.482Z,97428.59
2022-10-29T17:00:48.923Z,97432.31
2022-10-29T17:03:16.345Z,97436.78
2022-10-29T17:05:43.691Z,97437.81
2022-10-29T17:08:10.267Z,97437.53
2022-10-29T17:10:37.292Z,97441.59
2022-10-29T17:13:03.781Z,97438.28
2022-10-29T17:15:30.100Z,97450.06
2022-10-29T17:17:56.974Z,97449.81
2022-10-29T17:20:23.559Z,97450.84
2022-10-29T17:22:49.962Z,97444.69
2022-10-29T17:25:16.339Z,97453.25
2022-10-29T17:27:42.779Z,97455.06
2022-10-29T17:30:09.837Z,97450.31
2022-10-29T17:32:36.417Z,97449.72
2022-10-29T17:35:03.739Z,97452.34
2022-10-29T17:37:30.137Z,97460.81
2022-10-29T17:39:56.508Z,97469.41
2022-10-29T17:42:23.874Z,97472.97
2022-10-29T17:44:51.219Z,97479.28
2022-10-29T17:47:17.587Z,97475.56
2022-10-29T17:49:43.900Z,97474.78
2022-10-29T17:52:10.779Z,97480.88
2022-10-29T17:54:37.248Z,97477.59
2022-10-29T17:57:03.724Z,97479.59
2022-10-29T17:59:30.063Z,97481.13
2022-10-29T18:01:56.780Z,97479.28
2022-10-29T18:04:23.163Z,97477.41
2022-10-29T18:06:49.584Z,97483.22
2022-10-29T18:09:18.669Z,97478.00
2022-10-29T18:11:48.275Z,97480.00
2022-10-29T18:14:14.676Z,97481.19
2022-10-29T18:16:41.037Z,97475.19
2022-10-29T18:19:08.027Z,97482.81
2022-10-29T18:21:34.359Z,97473.53
2022-10-29T18:24:00.903Z,97479.00
2022-10-29T18:26:34.138Z,97478.16
2022-10-29T18:29:01.578Z,97474.31
2022-10-29T18:31:30.125Z,97466.22
2022-10-29T18:34:01.667Z,97474.78
2022-10-29T18:36:28.247Z,97473.97
2022-10-29T18:38:55.730Z,97473.72
2022-10-29T18:41:22.726Z,97478.03
2022-10-29T18:43:49.131Z,97470.56
2022-10-29T18:46:15.761Z,97472.09
2022-10-29T18:48:43.487Z,97471.72
2022-10-29T18:51:12.575Z,97482.06
2022-10-29T18:53:39.475Z,97481.00
2022-10-29T18:56:13.558Z,97479.72
2022-10-29T18:58:40.393Z,97477.81
2022-10-29T19:01:08.172Z,97477.38
2022-10-29T19:03:34.871Z,97472.25
2022-10-29T19:06:05.535Z,97472.88
2022-10-29T19:08:33.642Z,97471.09
2022-10-29T19:11:04.021Z,97467.06
2022-10-29T19:13:30.701Z,97474.19
2022-10-29T19:16:04.373Z,97474.72
2022-10-29T19:18:31.281Z,97477.22
2022-10-29T19:21:06.641Z,97473.28
2022-10-29T19:23:33.297Z,97469.75
2022-10-29T19:26:09.337Z,97471.03
2022-10-29T19:28:35.758Z,97470.25
2022-10-29T19:31:06.127Z,97469.63
2022-10-29T19:33:32.905Z,97475.44
2022-10-29T19:35:59.564Z,97478.78
2022-10-29T19:38:25.954Z,97478.44
2022-10-29T19:40:52.519Z,97478.06
2022-10-29T19:43:18.884Z,97472.28
2022-10-29T19:45:46.495Z,97479.09
2022-10-29T19:48:12.821Z,97481.91
2022-10-29T19:50:39.245Z,97482.50
2022-10-29T19:53:05.747Z,97484.13
2022-10-29T19:55:33.056Z,97480.81
2022-10-29T19:57:59.376Z,97482.56
2022-10-29T20:00:25.715Z,97485.69
2022-10-29T20:02:53.297Z,97491.59
2022-10-29T20:05:20.370Z,97486.84
2022-10-29T20:07:49.081Z,97492.44
2022-10-29T20:10:16.695Z,97488.13
2022-10-29T20:12:43.190Z,97481.69
2022-10-29T20:15:09.686Z,97481.47
2022-10-29T20:17:36.076Z,97473.94
2022-10-29T20:20:02.383Z,97468.28
2022-10-29T20:22:28.697Z,97465.84
2022-10-29T20:24:55.010Z,97473.84
2022-10-29T20:27:21.330Z,97465.78
2022-10-29T20:29:47.638Z,97471.66
2022-10-29T20:32:13.974Z,97461.16
2022-10-29T20:34:40.287Z,97458.56
2022-10-29T20:37:06.615Z,97466.56
2022-10-29T20:39:34.961Z,97465.00
2022-10-29T20:42:01.270Z,97470.28
2022-10-29T20:44:27.651Z,97464.94
2022-10-29T20:46:53.976Z,97469.84
2022-10-29T20:49:20.408Z,97461.56
2022-10-29T20:51:46.707Z,97470.50
2022-10-29T20:54:14.058Z,97469.84
2022-10-29T20:56:40.438Z,97479.22
2022-10-29T20:59:07.904Z,97483.97
2022-10-29T21:01:34.444Z,97492.13
2022-10-29T21:04:00.967Z,97487.00
2022-10-29T21:06:27.382Z,97484.28
2022-10-29T21:08:53.805Z,97485.75
2022-10-29T21:11:20.931Z,97478.44
2022-10-29T21:13:47.478Z,97479.88
2022-10-29T21:16:15.863Z,97475.41
2022-10-29T21:18:42.790Z,97476.59
2022-10-29T21:21:09.320Z,97474.03
2022-10-29T21:23:37.273Z,97470.13
2022-10-29T21:26:04.573Z,97467.91
2022-10-29T21:28:32.373Z,97464.16
2022-10-29T21:31:00.838Z,97461.34
2022-10-29T21:33:27.213Z,97460.53
2022-10-29T21:35:55.309Z,97465.50
2022-10-29T21:38:21.998Z,97469.38
2022-10-29T21:40:48.395Z,97465.56
2022-10-29T21:43:15.323Z,97461.25
2022-10-29T21:45:43.312Z,97461.78
2022-10-29T21:48:09.959Z,97458.28
2022-10-29T21:50:36.602Z,97462.25
2022-10-29T21:53:02.992Z,97466.72
2022-10-29T21:55:29.660Z,97468.41
2022-10-29T21:57:56.216Z,97464.59
2022-10-29T22:00:24.879Z,97458.97
2022-10-29T22:02:51.195Z,97460.50
2022-10-29T22:05:17.720Z,97458.50
2022-10-29T22:07:44.043Z,97465.75
2022-10-29T22:10:10.718Z,97461.00
2022-10-29T22:12:37.210Z,97462.38
2022-10-29T22:15:05.229Z,97466.22
2022-10-29T22:17:32.080Z,97467.88
2022-10-29T22:19:58.474Z,97470.16
2022-10-29T22:22:24.814Z,97468.03
2022-10-29T22:24:51.155Z,97465.06
2022-10-29T22:27:17.537Z,97457.44
2022-10-29T22:29:43.888Z,97452.34
2022-10-29T22:32:10.607Z,97453.19
2022-10-29T22:34:36.942Z,97458.63
2022-10-29T22:37:03.276Z,97451.13
2022-10-29T22:39:29.705Z,97456.88
2022-10-29T22:41:56.019Z,97454.75
2022-10-29T22:44:22.435Z,97452.78
2022-10-29T22:46:48.783Z,97449.66
2022-10-29T22:49:15.227Z,97450.44
2022-10-29T22:51:41.810Z,97454.25
2022-10-29T22:54:09.369Z,97451.44
2022-10-29T22:56:37.386Z,97449.34
2022-10-29T22:59:04.509Z,97447.34
2022-10-29T23:01:32.312Z,97451.66
2022-10-29T23:03:59.016Z,97443.22
2022-10-29T23:06:25.699Z,97445.75
2022-10-29T23:08:52.959Z,97448.03
2022-10-29T23:11:21.081Z,97453.84
2022-10-29T23:13:48.279Z,97451.22
2022-10-29T23:16:15.083Z,97447.28
2022-10-29T23:18:41.719Z,97442.97
2022-10-29T23:21:10.046Z,97443.63
2022-10-29T23:23:36.735Z,97438.84
2022-10-29T23:26:04.069Z,97442.66
2022-10-29T23:28:31.758Z,97448.44
2022-10-29T23:30:59.072Z,97445.97
2022-10-29T23:33:25.414Z,97445.78
2022-10-29T23:35:51.889Z,97446.81
2022-10-29T23:38:18.286Z,97444.00
2022-10-29T23:40:45.046Z,97446.81
2022-10-29T23:43:13.684Z,97437.25
2022-10-29T23:45:40.797Z,97444.16
2022-10-29T23:48:08.567Z,97441.38
2022-10-29T23:50:35.363Z,97439.38
2022-10-29T23:53:01.712Z,97441.88
2022-10-29T23:55:28.076Z,97434.13
2022-10-29T23:57:55.300Z,97433.63
